Time;durP1;ratioP1;P1;durP2;ratioP2;P2;SDS_P1;SDS_P2;PMS_P1;PMS_P2;Temp;Humidity;BMP_temperature;BMP_pressure;BME280_temperature;BME280_humidity;BME280_pressure;Samples;Min_cycle;Max_cycle;Signal;HPM_P1;HPM_P2
2023/09/17 00:01:26;;;;;;;21.17;18.58;;;16.20;99.90;;;;;;5113616;28;20047;-74
2023/09/17 00:03:52;;;;;;;22.58;19.45;;;16.20;99.90;;;;;;5112302;28;20086;-74
2023/09/17 00:06:18;;;;;;;20.05;17.10;;;16.20;99.90;;;;;;5112643;28;20075;-74
2023/09/17 00:08:44;;;;;;;23.45;18.85;;;16.20;99.90;;;;;;5112409;28;20082;-74
2023/09/17 00:11:10;;;;;;;21.30;18.80;;;16.20;99.90;;;;;;5076170;28;20039;-74
2023/09/17 00:13:39;;;;;;;20.83;18.63;;;16.20;99.90;;;;;;5092301;28;20075;-74
2023/09/17 00:16:05;;;;;;;19.65;17.52;;;16.10;99.90;;;;;;5092873;28;20483;-74
2023/09/17 00:18:31;;;;;;;26.85;20.77;;;16.10;99.90;;;;;;5075480;28;20050;-74
2023/09/17 00:20:57;;;;;;;21.65;19.13;;;16.10;99.90;;;;;;5092170;28;20550;-74
2023/09/17 00:23:23;;;;;;;18.00;15.27;;;16.10;99.90;;;;;;5075064;28;20052;-74
2023/09/17 00:25:49;;;;;;;20.05;17.92;;;16.00;99.90;;;;;;5092162;28;20491;-74
2023/09/17 00:28:15;;;;;;;19.95;16.77;;;16.00;99.90;;;;;;5092992;28;20048;-74
2023/09/17 00:30:41;;;;;;;18.23;16.35;;;16.00;99.90;;;;;;5075348;28;20056;-74
2023/09/17 00:33:07;;;;;;;19.98;17.83;;;16.00;99.90;;;;;;5092746;28;20089;-74
2023/09/17 00:35:33;;;;;;;21.23;18.05;;;15.90;99.90;;;;;;5105580;28;20054;-74
2023/09/17 00:37:59;;;;;;;21.05;18.38;;;15.90;99.90;;;;;;5096285;28;20040;-74
2023/09/17 00:40:28;;;;;;;22.65;19.30;;;15.90;99.90;;;;;;5113693;28;20052;-74
2023/09/17 00:42:54;;;;;;;22.67;19.23;;;15.90;99.90;;;;;;5117687;28;20153;-74
2023/09/17 00:45:20;;;;;;;22.85;19.33;;;15.80;99.90;;;;;;5112696;28;20130;-74
2023/09/17 00:47:46;;;;;;;22.88;19.83;;;15.80;99.90;;;;;;5116197;28;20173;-74
2023/09/17 00:50:12;;;;;;;19.45;16.70;;;15.80;99.90;;;;;;5115604;28;20094;-74
2023/09/17 00:52:38;;;;;;;22.23;18.73;;;15.80;99.90;;;;;;5116179;28;20052;-74
2023/09/17 00:55:09;;;;;;;21.45;19.17;;;15.80;99.90;;;;;;5117060;28;20592;-74
2023/09/17 00:57:37;;;;;;;26.02;23.23;;;15.80;99.90;;;;;;5115204;28;20051;-74
2023/09/17 01:00:05;;;;;;;17.50;14.82;;;15.80;99.90;;;;;;5099095;28;20042;-75
2023/09/17 01:02:34;;;;;;;25.35;22.30;;;15.80;99.90;;;;;;5098683;28;20508;-74
2023/09/17 01:05:00;;;;;;;25.77;22.98;;;15.70;99.90;;;;;;5116107;28;20062;-74
2023/09/17 01:07:26;;;;;;;20.92;18.27;;;15.70;99.90;;;;;;5116132;28;20463;-74
2023/09/17 01:09:52;;;;;;;25.17;19.65;;;15.70;99.90;;;;;;5115199;28;20108;-74
2023/09/17 01:12:22;;;;;;;26.58;23.05;;;15.70;99.90;;;;;;5116584;28;20053;-74
2023/09/17 01:14:47;;;;;;;25.17;21.17;;;15.70;99.90;;;;;;5116338;28;20068;-74
2023/09/17 01:17:15;;;;;;;25.42;21.38;;;15.70;99.90;;;;;;5115418;28;20401;-74
2023/09/17 01:19:42;;;;;;;23.42;19.30;;;15.60;99.90;;;;;;5115609;28;20502;-74
2023/09/17 01:22:20;;;;;;;27.25;22.50;;;15.70;99.90;;;;;;5117153;28;20134;-74
2023/09/17 01:25:12;;;;;;;25.25;21.17;;;15.60;99.90;;;;;;5116430;28;20058;-74
2023/09/17 01:27:39;;;;;;;28.00;23.17;;;15.60;99.90;;;;;;5117051;28;20083;-74
2023/09/17 01:30:21;;;;;;;28.63;24.70;;;15.60;99.90;;;;;;5116640;28;20112;-74
2023/09/17 01:32:47;;;;;;;30.58;26.25;;;15.60;99.90;;;;;;5115686;28;20058;-74
2023/09/17 01:35:15;;;;;;;28.50;24.98;;;15.60;99.90;;;;;;5115127;28;20122;-74
2023/09/17 01:37:54;;;;;;;24.20;20.02;;;15.50;99.90;;;;;;5115918;28;20053;-74
2023/09/17 01:40:21;;;;;;;22.02;17.88;;;15.50;99.90;;;;;;5082752;28;20044;-74
2023/09/17 01:42:51;;;;;;;28.65;24.33;;;15.50;99.90;;;;;;5115598;28;20133;-74
2023/09/17 01:45:20;;;;;;;25.88;22.35;;;15.40;99.90;;;;;;5116214;28;20079;-74
2023/09/17 01:47:47;;;;;;;32.38;25.88;;;15.40;99.90;;;;;;5114218;28;20059;-74
2023/09/17 01:50:17;;;;;;;23.38;19.77;;;15.40;99.90;;;;;;5115054;28;20130;-74
2023/09/17 01:52:45;;;;;;;30.80;24.45;;;15.40;99.90;;;;;;5116555;28;20043;-74
2023/09/17 01:55:12;;;;;;;32.92;28.85;;;15.40;99.90;;;;;;5115070;28;20451;-74
2023/09/17 01:57:39;;;;;;;32.60;27.35;;;15.40;99.90;;;;;;5114891;28;20047;-74
2023/09/17 02:00:14;;;;;;;31.27;24.58;;;15.30;99.90;;;;;;5114542;28;20067;-74
2023/09/17 02:02:43;;;;;;;30.33;24.88;;;15.30;99.90;;;;;;5114962;28;20039;-74
2023/09/17 02:05:09;;;;;;;27.70;23.35;;;15.30;99.90;;;;;;5116269;28;20039;-74
2023/09/17 02:07:36;;;;;;;27.02;21.90;;;15.30;99.90;;;;;;5115472;28;20050;-74
2023/09/17 02:10:02;;;;;;;31.58;26.33;;;15.30;99.90;;;;;;5114736;28;20052;-74
2023/09/17 02:12:28;;;;;;;22.50;19.60;;;15.20;99.90;;;;;;5097723;28;20122;-74
2023/09/17 02:14:54;;;;;;;31.00;25.75;;;15.20;99.90;;;;;;5115116;28;20521;-74
2023/09/17 02:17:21;;;;;;;32.90;27.13;;;15.20;99.90;;;;;;5115323;28;20498;-74
2023/09/17 02:19:47;;;;;;;26.83;22.85;;;15.20;99.90;;;;;;5115446;28;20395;-74
2023/09/17 02:22:13;;;;;;;25.00;19.90;;;15.20;99.90;;;;;;5115369;28;20036;-74
2023/09/17 02:24:39;;;;;;;26.20;22.15;;;15.20;99.90;;;;;;5115866;28;20118;-74
2023/09/17 02:27:05;;;;;;;25.73;20.60;;;15.20;99.90;;;;;;5114070;28;20051;-74
2023/09/17 02:29:31;;;;;;;28.33;22.92;;;15.20;99.90;;;;;;5115163;28;20047;-74
2023/09/17 02:31:57;;;;;;;32.22;25.38;;;15.20;99.90;;;;;;5096990;28;20483;-74
2023/09/17 02:34:25;;;;;;;26.75;23.00;;;15.20;99.90;;;;;;5115141;28;20044;-74
2023/09/17 02:36:51;;;;;;;28.05;24.35;;;15.30;99.90;;;;;;5114152;28;20515;-74
2023/09/17 02:39:17;;;;;;;28.65;23.52;;;15.30;99.90;;;;;;5113494;28;20057;-74
2023/09/17 02:41:43;;;;;;;24.23;20.52;;;15.30;99.90;;;;;;5114213;28;20098;-74
2023/09/17 02:44:08;;;;;;;27.15;21.73;;;15.30;99.90;;;;;;5114935;28;20043;-74
2023/09/17 02:46:37;;;;;;;24.30;20.40;;;15.30;99.90;;;;;;5114740;28;20039;-74
2023/09/17 02:49:03;;;;;;;27.25;22.08;;;15.30;99.90;;;;;;5096231;28;20126;-74
2023/09/17 02:51:28;;;;;;;26.23;21.58;;;15.30;99.90;;;;;;5114708;28;20044;-74
2023/09/17 02:53:54;;;;;;;23.85;19.85;;;15.30;99.90;;;;;;5113132;28;20055;-74
2023/09/17 02:56:20;;;;;;;22.02;19.67;;;15.30;99.90;;;;;;5096435;28;20099;-74
2023/09/17 02:58:46;;;;;;;26.67;23.10;;;15.30;99.90;;;;;;5112158;28;20054;-74
2023/09/17 03:01:17;;;;;;;26.30;22.05;;;15.40;99.90;;;;;;5114300;28;20050;-74
2023/09/17 03:03:47;;;;;;;23.15;20.48;;;15.40;99.90;;;;;;5112361;28;20153;-74
2023/09/17 03:06:14;;;;;;;27.92;22.92;;;15.40;99.90;;;;;;5113428;28;20099;-74
2023/09/17 03:08:41;;;;;;;28.85;23.92;;;15.40;99.90;;;;;;5112632;28;20043;-74
2023/09/17 03:11:17;;;;;;;27.10;24.17;;;15.40;99.90;;;;;;5113739;28;20521;-74
2023/09/17 03:13:47;;;;;;;27.35;24.45;;;15.40;99.90;;;;;;5112441;28;20059;-74
2023/09/17 03:16:15;;;;;;;25.33;22.58;;;15.40;99.90;;;;;;5111523;28;20059;-74
2023/09/17 03:18:43;;;;;;;26.67;22.50;;;15.40;99.90;;;;;;5113404;28;20043;-74
2023/09/17 03:21:09;;;;;;;27.08;23.65;;;15.40;99.90;;;;;;5112143;28;20950;-74
2023/09/17 03:23:36;;;;;;;25.95;21.70;;;15.40;99.90;;;;;;5112343;28;20131;-74
2023/09/17 03:26:03;;;;;;;30.02;25.13;;;15.40;99.90;;;;;;5112464;28;20055;-74
2023/09/17 03:28:30;;;;;;;28.10;22.90;;;15.50;99.90;;;;;;5113230;28;20516;-74
2023/09/17 03:30:55;;;;;;;21.63;18.90;;;15.50;99.90;;;;;;5113368;28;20043;-74
2023/09/17 03:33:23;;;;;;;27.40;23.17;;;15.50;99.90;;;;;;5113519;28;20097;-74
2023/09/17 03:35:48;;;;;;;32.95;24.95;;;15.50;99.90;;;;;;5112862;28;20046;-74
2023/09/17 03:38:15;;;;;;;23.55;19.17;;;15.50;99.90;;;;;;5112191;28;20044;-74
2023/09/17 03:40:40;;;;;;;33.45;26.52;;;15.50;99.90;;;;;;5107508;28;20388;-74
2023/09/17 03:43:06;;;;;;;24.52;20.23;;;15.50;99.90;;;;;;5093683;28;20047;-74
2023/09/17 03:45:32;;;;;;;36.83;28.70;;;15.50;99.90;;;;;;5093033;28;20084;-74
2023/09/17 03:47:58;;;;;;;41.90;33.63;;;15.50;99.90;;;;;;5092878;28;20040;-74
2023/09/17 03:50:24;;;;;;;30.35;25.30;;;15.50;99.90;;;;;;5092869;28;20146;-74
2023/09/17 03:52:53;;;;;;;43.97;32.97;;;15.60;99.90;;;;;;5092745;28;20075;-78
2023/09/17 03:55:20;;;;;;;43.35;34.38;;;15.60;99.90;;;;;;5091538;28;20048;-74
2023/09/17 03:57:46;;;;;;;36.50;31.10;;;15.60;99.90;;;;;;5108271;28;20057;-74
2023/09/17 04:00:14;;;;;;;41.40;31.92;;;15.60;99.90;;;;;;5111821;28;20055;-74
2023/09/17 04:02:41;;;;;;;35.15;28.13;;;15.60;99.90;;;;;;5094979;28;20093;-74
2023/09/17 04:05:14;;;;;;;45.22;33.55;;;15.60;99.90;;;;;;5112983;28;20048;-74
2023/09/17 04:07:41;;;;;;;40.63;32.65;;;15.60;99.90;;;;;;5113029;28;20142;-76
2023/09/17 04:10:07;;;;;;;38.40;31.52;;;15.70;99.90;;;;;;5113900;28;20463;-74
2023/09/17 04:12:34;;;;;;;42.17;33.13;;;15.70;99.90;;;;;;5116848;28;20556;-74
2023/09/17 04:15:01;;;;;;;41.20;33.17;;;15.70;99.90;;;;;;5117137;28;20044;-74
2023/09/17 04:17:26;;;;;;;44.22;35.97;;;15.70;99.90;;;;;;5117241;28;20039;-74
2023/09/17 04:19:52;;;;;;;37.55;31.15;;;15.80;99.90;;;;;;5116169;28;20112;-74
2023/09/17 04:22:18;;;;;;;42.92;33.35;;;15.80;99.90;;;;;;5117006;27;20440;-74
2023/09/17 04:24:44;;;;;;;49.95;38.47;;;15.80;99.90;;;;;;5098666;28;20051;-74
2023/09/17 04:27:11;;;;;;;40.10;31.98;;;15.80;99.90;;;;;;5116813;28;20412;-74
2023/09/17 04:29:37;;;;;;;37.47;31.90;;;15.80;99.90;;;;;;5116687;28;20043;-74
2023/09/17 04:32:06;;;;;;;40.10;32.63;;;15.80;99.90;;;;;;5115554;28;20055;-75
2023/09/17 04:34:32;;;;;;;35.35;28.85;;;15.80;99.90;;;;;;5098726;28;20051;-74
2023/09/17 04:37:00;;;;;;;42.40;34.92;;;15.90;99.90;;;;;;5115526;28;20104;-74
2023/09/17 04:39:27;;;;;;;41.55;34.22;;;15.90;99.90;;;;;;5115285;28;20047;-75
2023/09/17 04:41:55;;;;;;;46.17;38.47;;;15.90;99.90;;;;;;5115029;28;20093;-74
2023/09/17 04:44:22;;;;;;;41.63;35.15;;;15.90;99.90;;;;;;5115661;28;20105;-74
2023/09/17 04:46:48;;;;;;;49.50;41.15;;;15.90;99.90;;;;;;5115024;28;20506;-73
2023/09/17 04:49:17;;;;;;;38.22;31.48;;;15.90;99.90;;;;;;5116590;28;20043;-73
2023/09/17 04:51:43;;;;;;;38.65;30.65;;;15.90;99.90;;;;;;5115138;28;20043;-74
2023/09/17 04:54:09;;;;;;;47.28;36.85;;;15.90;99.90;;;;;;5098035;28;20104;-74
2023/09/17 04:56:35;;;;;;;51.53;35.80;;;15.90;99.90;;;;;;5080841;28;20044;-76
2023/09/17 04:59:01;;;;;;;43.45;33.42;;;15.90;99.90;;;;;;5115297;28;20058;-74
2023/09/17 05:01:27;;;;;;;29.88;25.50;;;15.90;99.90;;;;;;5080968;28;20047;-74
2023/09/17 05:04:00;;;;;;;43.70;36.10;;;15.80;99.90;;;;;;5114563;28;20452;-74
2023/09/17 05:06:26;;;;;;;44.42;36.50;;;15.90;99.90;;;;;;5114635;28;20058;-74
2023/09/17 05:08:51;;;;;;;38.83;32.13;;;15.90;99.90;;;;;;5098045;28;20410;-74
2023/09/17 05:11:18;;;;;;;42.45;32.67;;;15.80;99.90;;;;;;5114704;28;20097;-74
2023/09/17 05:13:43;;;;;;;31.38;26.08;;;15.80;99.90;;;;;;5115072;28;20052;-74
2023/09/17 05:16:09;;;;;;;44.22;34.67;;;15.90;99.90;;;;;;5114730;28;20461;-74
2023/09/17 05:18:35;;;;;;;51.30;36.63;;;15.80;99.90;;;;;;5115371;28;20048;-74
2023/09/17 05:21:00;;;;;;;40.63;32.35;;;15.80;99.90;;;;;;5114412;28;20046;-73
2023/09/17 05:23:30;;;;;;;43.70;35.70;;;15.80;99.90;;;;;;5114966;28;20082;-77
2023/09/17 05:25:55;;;;;;;42.58;33.22;;;15.80;99.90;;;;;;5102904;28;20043;-75
2023/09/17 05:28:23;;;;;;;33.25;29.25;;;15.90;99.90;;;;;;5089856;28;20368;-75
2023/09/17 05:30:53;;;;;;;45.30;34.22;;;15.80;99.90;;;;;;5110769;28;20043;-75
2023/09/17 05:33:19;;;;;;;43.40;34.60;;;15.80;99.90;;;;;;5085974;28;20048;-75
2023/09/17 05:35:45;;;;;;;50.35;38.95;;;15.90;99.90;;;;;;5106539;28;20087;-77
2023/09/17 05:38:10;;;;;;;41.30;34.03;;;15.90;99.90;;;;;;5106875;28;20144;-76
2023/09/17 05:40:39;;;;;;;40.03;33.78;;;15.90;99.90;;;;;;5103116;28;20097;-76
2023/09/17 05:43:12;;;;;;;38.35;29.58;;;15.90;99.90;;;;;;5102106;28;20471;-75
2023/09/17 05:45:41;;;;;;;37.67;31.90;;;15.90;99.90;;;;;;5104734;28;20119;-76
2023/09/17 05:48:10;;;;;;;45.15;38.38;;;15.90;99.90;;;;;;5104843;28;20181;-76
2023/09/17 05:50:36;;;;;;;48.72;38.85;;;15.90;99.90;;;;;;5087223;28;20123;-76
2023/09/17 05:53:02;;;;;;;42.47;33.47;;;15.90;99.90;;;;;;5083183;28;20044;-76
2023/09/17 05:55:28;;;;;;;25.67;21.23;;;15.90;99.90;;;;;;5087053;28;20036;-76
2023/09/17 05:57:54;;;;;;;36.13;30.88;;;15.90;99.90;;;;;;5109621;28;20043;-75
2023/09/17 06:00:20;;;;;;;49.15;38.50;;;15.90;99.90;;;;;;5107352;28;20073;-76
2023/09/17 06:02:46;;;;;;;43.53;36.55;;;15.90;99.90;;;;;;5094060;28;20102;-75
2023/09/17 06:05:12;;;;;;;47.20;40.22;;;15.90;99.90;;;;;;5104720;28;20044;-76
2023/09/17 06:07:39;;;;;;;39.88;32.80;;;16.00;99.90;;;;;;5107714;28;20126;-75
2023/09/17 06:10:06;;;;;;;50.05;36.85;;;16.00;99.90;;;;;;5100789;28;20040;-75
2023/09/17 06:12:32;;;;;;;44.35;36.42;;;16.00;99.90;;;;;;5091465;28;20048;-75
2023/09/17 06:14:58;;;;;;;37.63;31.90;;;16.00;99.90;;;;;;5107470;28;20515;-75
2023/09/17 06:17:25;;;;;;;48.05;40.28;;;16.00;99.90;;;;;;5074197;28;20058;-75
2023/09/17 06:19:54;;;;;;;40.70;34.92;;;16.00;99.90;;;;;;5108531;28;20043;-75
2023/09/17 06:22:20;;;;;;;45.50;38.33;;;16.00;99.90;;;;;;5091436;28;20395;-76
2023/09/17 06:24:50;;;;;;;40.15;34.17;;;16.00;99.90;;;;;;5108741;28;20134;-75
2023/09/17 06:27:15;;;;;;;36.97;30.55;;;16.10;99.90;;;;;;5102977;28;20044;-75
2023/09/17 06:29:41;;;;;;;50.00;40.40;;;16.00;99.90;;;;;;5109526;28;20126;-75
2023/09/17 06:32:41;;;;;;;34.70;29.30;;;16.10;99.90;;;;;;5067469;27;20466;-75
2023/09/17 06:35:08;;;;;;;33.53;28.85;;;16.10;99.90;;;;;;5059611;28;20049;-74
2023/09/17 06:37:33;;;;;;;36.00;30.50;;;16.10;99.90;;;;;;5063501;28;21891;-75
2023/09/17 06:39:59;;;;;;;47.97;38.92;;;16.10;99.90;;;;;;5068555;28;20059;-74
2023/09/17 06:42:25;;;;;;;44.22;37.42;;;16.20;99.90;;;;;;5064180;28;20087;-74
2023/09/17 06:44:50;;;;;;;46.90;38.58;;;16.20;99.90;;;;;;5063397;28;20132;-74
2023/09/17 06:47:16;;;;;;;46.15;37.88;;;16.20;99.90;;;;;;5022690;28;20045;-74
2023/09/17 06:49:42;;;;;;;41.92;36.20;;;16.30;99.90;;;;;;5066490;28;20095;-74
2023/09/17 06:52:09;;;;;;;45.92;38.38;;;16.30;99.90;;;;;;5069713;28;20108;-74
2023/09/17 06:54:35;;;;;;;30.85;24.45;;;16.30;99.90;;;;;;5071335;28;20122;-74
2023/09/17 06:57:04;;;;;;;48.95;40.13;;;16.40;99.90;;;;;;5070355;28;20044;-74
2023/09/17 06:59:29;;;;;;;53.78;39.55;;;16.40;99.90;;;;;;5052728;28;20372;-74
2023/09/17 07:01:55;;;;;;;48.17;40.45;;;16.40;99.90;;;;;;5069888;28;20041;-75
2023/09/17 07:04:21;;;;;;;48.17;40.95;;;16.50;99.90;;;;;;5069548;28;20041;-74
2023/09/17 07:06:46;;;;;;;45.83;39.88;;;16.50;99.90;;;;;;5070198;28;20565;-73
2023/09/17 07:09:13;;;;;;;42.85;36.13;;;16.50;99.90;;;;;;5071038;28;20408;-73
2023/09/17 07:11:38;;;;;;;48.92;41.97;;;16.60;99.90;;;;;;5069620;28;20059;-73
2023/09/17 07:14:09;;;;;;;51.78;41.40;;;16.60;99.90;;;;;;5052761;28;20460;-74
2023/09/17 07:16:36;;;;;;;51.10;41.65;;;16.60;99.90;;;;;;5052975;28;20534;-75
2023/09/17 07:19:04;;;;;;;47.85;42.05;;;16.70;99.90;;;;;;5068859;28;20126;-73
2023/09/17 07:21:32;;;;;;;51.00;41.45;;;16.70;99.90;;;;;;5069550;28;20126;-77
2023/09/17 07:24:04;;;;;;;49.15;39.80;;;16.80;99.90;;;;;;5086078;28;20045;-74
2023/09/17 07:26:29;;;;;;;49.17;42.33;;;16.80;99.90;;;;;;5068030;28;20063;-74
2023/09/17 07:28:55;;;;;;;46.28;39.78;;;16.90;99.90;;;;;;5051583;28;20536;-74
2023/09/17 07:31:22;;;;;;;41.55;34.42;;;16.90;99.90;;;;;;5050978;28;20136;-75
2023/09/17 07:33:50;;;;;;;47.20;39.97;;;16.90;99.90;;;;;;5067632;28;20094;-74
2023/09/17 07:36:16;;;;;;;44.38;39.45;;;16.90;99.90;;;;;;5051467;28;20083;-73
2023/09/17 07:38:41;;;;;;;40.53;36.15;;;17.00;99.90;;;;;;5051061;28;20092;-74
2023/09/17 07:41:24;;;;;;;43.20;38.25;;;17.00;99.90;;;;;;5052034;28;20052;-73
2023/09/17 07:43:50;;;;;;;50.28;37.78;;;17.00;99.90;;;;;;5035898;28;20124;-73
2023/09/17 07:46:19;;;;;;;42.33;34.58;;;17.10;99.90;;;;;;5034776;28;20049;-73
2023/09/17 07:48:47;;;;;;;41.35;35.70;;;17.10;99.90;;;;;;5051548;28;20491;-72
2023/09/17 07:51:16;;;;;;;41.42;35.45;;;17.20;99.90;;;;;;5034726;28;20048;-74
2023/09/17 07:53:43;;;;;;;35.08;31.27;;;17.20;99.90;;;;;;5017973;28;20141;-74
2023/09/17 07:56:13;;;;;;;39.40;34.13;;;17.20;99.90;;;;;;5068011;28;20053;-73
2023/09/17 07:58:47;;;;;;;39.22;34.90;;;17.20;99.90;;;;;;5038045;28;20037;-73
2023/09/17 08:01:14;;;;;;;43.92;36.83;;;17.30;99.90;;;;;;5053442;28;20095;-73
2023/09/17 08:03:40;;;;;;;44.00;36.65;;;17.30;99.90;;;;;;5037787;28;20389;-75
2023/09/17 08:06:09;;;;;;;43.28;35.33;;;17.30;99.90;;;;;;5053973;28;20049;-74
2023/09/17 08:08:34;;;;;;;35.40;31.08;;;17.40;99.90;;;;;;5054425;28;20086;-73
2023/09/17 08:11:03;;;;;;;31.80;28.00;;;17.40;99.90;;;;;;5087658;28;20045;-73
2023/09/17 08:13:31;;;;;;;36.75;32.47;;;17.50;99.90;;;;;;5054363;28;20048;-73
2023/09/17 08:15:59;;;;;;;29.77;26.58;;;17.50;99.90;;;;;;5037483;28;20400;-74
2023/09/17 08:18:25;;;;;;;40.60;34.67;;;17.50;99.90;;;;;;5021345;28;20049;-74
2023/09/17 08:20:53;;;;;;;41.60;36.88;;;17.50;99.90;;;;;;5054302;28;20064;-75
2023/09/17 08:23:19;;;;;;;36.00;32.17;;;17.60;99.90;;;;;;5037367;28;20052;-77
2023/09/17 08:25:54;;;;;;;41.70;34.15;;;17.60;99.90;;;;;;5060708;28;20049;-75
2023/09/17 08:28:22;;;;;;;41.92;34.92;;;17.60;99.90;;;;;;5048852;28;20186;-75
2023/09/17 08:30:49;;;;;;;35.50;31.48;;;17.60;99.90;;;;;;5036530;28;20099;-76
2023/09/17 08:33:15;;;;;;;38.22;34.15;;;17.70;99.90;;;;;;5054172;28;20059;-76
2023/09/17 08:35:41;;;;;;;33.35;29.77;;;17.70;99.90;;;;;;5053007;28;20041;-76
2023/09/17 08:38:06;;;;;;;43.58;34.45;;;17.70;99.90;;;;;;5053653;28;20048;-75
2023/09/17 08:40:38;;;;;;;32.50;28.98;;;17.70;99.90;;;;;;5053425;28;20084;-75
2023/09/17 08:43:14;;;;;;;38.47;31.95;;;17.80;99.90;;;;;;5054732;28;20056;-76
2023/09/17 08:45:41;;;;;;;28.15;25.00;;;17.80;99.90;;;;;;5036963;28;20068;-78
2023/09/17 08:48:10;;;;;;;23.00;20.13;;;17.80;99.90;;;;;;5053491;28;20053;-76
2023/09/17 08:50:51;;;;;;;34.25;29.95;;;17.80;99.90;;;;;;5053666;28;20127;-75
2023/09/17 08:53:26;;;;;;;33.05;28.90;;;17.90;99.90;;;;;;5053076;28;20049;-75
2023/09/17 08:55:56;;;;;;;32.88;28.40;;;17.90;99.90;;;;;;5052550;28;20136;-76
2023/09/17 08:58:31;;;;;;;32.72;27.88;;;17.90;99.90;;;;;;5052173;28;20072;-76
2023/09/17 09:01:04;;;;;;;32.92;27.23;;;18.00;99.90;;;;;;5055384;28;20048;-75
2023/09/17 09:03:35;;;;;;;35.20;28.60;;;18.00;99.90;;;;;;5058151;28;20052;-76
2023/09/17 09:06:03;;;;;;;28.90;23.83;;;18.00;99.90;;;;;;5036060;28;20040;-75
2023/09/17 09:08:36;;;;;;;33.55;27.42;;;18.00;99.90;;;;;;5052820;28;20128;-76
2023/09/17 09:11:06;;;;;;;33.53;28.73;;;18.00;99.90;;;;;;5052838;28;20098;-75
2023/09/17 09:13:42;;;;;;;30.85;26.55;;;18.10;99.90;;;;;;5053028;28;20049;-76
2023/09/17 09:16:08;;;;;;;33.28;27.95;;;18.10;99.90;;;;;;5036074;28;20507;-76
2023/09/17 09:18:35;;;;;;;27.42;24.08;;;18.20;99.90;;;;;;5051994;28;20064;-75
2023/09/17 09:21:01;;;;;;;29.50;26.13;;;18.20;99.90;;;;;;5052143;28;20178;-75
2023/09/17 09:23:29;;;;;;;28.50;23.25;;;18.30;99.90;;;;;;5054150;28;20403;-76
2023/09/17 09:25:58;;;;;;;31.42;24.75;;;18.30;99.90;;;;;;5034988;28;20056;-76
2023/09/17 09:28:31;;;;;;;31.15;24.02;;;18.30;99.90;;;;;;5052468;28;20049;-75
2023/09/17 09:30:57;;;;;;;24.42;21.65;;;18.30;99.90;;;;;;5051701;28;20045;-76
2023/09/17 09:33:26;;;;;;;23.52;20.92;;;18.30;99.90;;;;;;5054123;28;20063;-76
2023/09/17 09:35:54;;;;;;;26.40;23.30;;;18.30;99.90;;;;;;5036461;28;20088;-78
2023/09/17 09:38:21;;;;;;;22.02;19.40;;;18.40;99.90;;;;;;5053743;28;20109;-79
2023/09/17 09:40:59;;;;;;;26.98;23.17;;;18.40;99.90;;;;;;5050815;28;20042;-78
2023/09/17 09:43:42;;;;;;;23.05;19.90;;;18.40;99.90;;;;;;5051755;28;20091;-77
2023/09/17 09:46:08;;;;;;;23.17;19.67;;;18.50;99.90;;;;;;5049698;28;20049;-77
2023/09/17 09:48:38;;;;;;;20.52;18.30;;;18.50;99.90;;;;;;5052108;28;20493;-77
2023/09/17 09:51:07;;;;;;;25.13;20.17;;;18.50;99.90;;;;;;5016126;28;20585;-77
2023/09/17 09:53:34;;;;;;;20.73;18.50;;;18.60;99.90;;;;;;5015556;28;20132;-78
2023/09/17 09:56:04;;;;;;;24.10;20.00;;;18.60;99.90;;;;;;5035386;28;20138;-78
2023/09/17 09:58:33;;;;;;;22.60;19.67;;;18.60;99.90;;;;;;5051445;28;20118;-77
2023/09/17 10:01:02;;;;;;;24.48;18.90;;;18.60;99.90;;;;;;5051438;28;20044;-78
2023/09/17 10:03:28;;;;;;;23.10;19.88;;;18.60;99.90;;;;;;5052722;28;20057;-78
2023/09/17 10:06:04;;;;;;;22.00;19.08;;;18.70;99.90;;;;;;5035189;28;20040;-78
2023/09/17 10:08:30;;;;;;;22.25;19.88;;;18.70;99.90;;;;;;5036095;28;20470;-77
2023/09/17 10:10:55;;;;;;;22.63;20.00;;;18.70;99.90;;;;;;5051443;28;20045;-78
2023/09/17 10:13:21;;;;;;;24.45;19.55;;;18.70;99.90;;;;;;5051551;28;20072;-78
2023/09/17 10:15:47;;;;;;;22.48;19.52;;;18.70;99.90;;;;;;5051549;28;20052;-76
2023/09/17 10:18:14;;;;;;;18.50;15.93;;;18.80;99.90;;;;;;5033876;28;20041;-76
2023/09/17 10:20:43;;;;;;;23.50;20.25;;;18.80;99.90;;;;;;5034889;28;20123;-79
2023/09/17 10:23:12;;;;;;;21.98;18.40;;;18.90;99.90;;;;;;5051840;28;20052;-78
2023/09/17 10:25:39;;;;;;;26.60;21.40;;;19.00;99.90;;;;;;5034829;28;20041;-77
2023/09/17 10:28:07;;;;;;;24.40;21.05;;;19.00;99.90;;;;;;5051404;28;20045;-76
2023/09/17 10:30:33;;;;;;;28.50;22.05;;;19.00;99.90;;;;;;5051256;28;20053;-79
2023/09/17 10:33:00;;;;;;;30.58;21.75;;;19.00;99.90;;;;;;5032760;28;20791;-77
2023/09/17 10:35:29;;;;;;;22.80;19.27;;;19.00;99.90;;;;;;5051009;28;20438;-78
2023/09/17 10:37:59;;;;;;;25.88;21.98;;;19.00;99.90;;;;;;5051595;28;20049;-76
2023/09/17 10:40:26;;;;;;;26.10;23.02;;;19.00;99.90;;;;;;5051344;28;20080;-76
2023/09/17 10:42:53;;;;;;;26.63;22.30;;;19.00;99.90;;;;;;5051722;28;20510;-76
2023/09/17 10:45:20;;;;;;;28.73;24.60;;;19.10;99.90;;;;;;5034210;28;20098;-77
2023/09/17 10:47:49;;;;;;;23.63;20.85;;;19.10;99.90;;;;;;5051270;28;20045;-76
2023/09/17 10:50:15;;;;;;;26.95;23.98;;;19.10;99.90;;;;;;5033977;28;20056;-78
2023/09/17 10:52:41;;;;;;;27.75;22.92;;;19.10;99.90;;;;;;5050550;28;20404;-77
2023/09/17 10:55:07;;;;;;;25.58;22.80;;;19.10;99.90;;;;;;5051728;28;20057;-77
2023/09/17 10:57:40;;;;;;;29.52;25.27;;;19.10;99.90;;;;;;5035106;28;20060;-76
2023/09/17 11:00:13;;;;;;;28.38;24.67;;;19.10;99.90;;;;;;5051312;28;20488;-78
2023/09/17 11:02:45;;;;;;;29.90;26.70;;;19.10;99.90;;;;;;5047537;28;20505;-77
2023/09/17 11:05:14;;;;;;;30.35;26.75;;;19.20;99.90;;;;;;5034784;28;20061;-78
2023/09/17 11:07:42;;;;;;;28.40;24.15;;;19.40;99.90;;;;;;5051642;28;20086;-78
2023/09/17 11:10:10;;;;;;;27.20;24.17;;;19.60;99.90;;;;;;5051944;28;20048;-77
2023/09/17 11:12:36;;;;;;;25.40;22.00;;;19.80;99.90;;;;;;5050237;28;20056;-78
2023/09/17 11:15:02;;;;;;;25.33;20.08;;;20.00;99.90;;;;;;5035249;28;20041;-77
2023/09/17 11:17:34;;;;;;;23.58;20.33;;;20.00;99.90;;;;;;5034759;28;20393;-79
2023/09/17 11:20:00;;;;;;;23.65;19.55;;;20.10;99.90;;;;;;5055313;28;20061;-76
2023/09/17 11:22:35;;;;;;;24.38;21.10;;;20.10;99.90;;;;;;5054164;28;20040;-77
2023/09/17 11:25:03;;;;;;;21.60;19.30;;;20.10;99.90;;;;;;5054707;28;20052;-77
2023/09/17 11:27:51;;;;;;;22.15;19.70;;;20.20;99.90;;;;;;5037864;28;20049;-76
2023/09/17 11:30:22;;;;;;;24.20;18.90;;;20.20;99.90;;;;;;5054727;28;20053;-76
2023/09/17 11:32:54;;;;;;;20.33;18.13;;;20.10;99.90;;;;;;5053675;28;20059;-77
2023/09/17 11:35:22;;;;;;;23.73;19.83;;;20.10;99.90;;;;;;5018333;28;20479;-78
2023/09/17 11:37:48;;;;;;;24.42;20.48;;;20.00;99.90;;;;;;5064903;28;20067;-78
2023/09/17 11:40:16;;;;;;;21.35;18.40;;;20.00;99.90;;;;;;5054984;28;20044;-76
2023/09/17 11:42:42;;;;;;;23.65;20.42;;;19.90;99.90;;;;;;5055558;28;20390;-76
2023/09/17 11:45:08;;;;;;;22.90;19.63;;;19.90;99.90;;;;;;5055668;28;20124;-76
2023/09/17 11:47:38;;;;;;;21.48;18.75;;;20.00;99.90;;;;;;5022386;28;20127;-76
2023/09/17 11:50:08;;;;;;;24.90;21.38;;;20.00;99.90;;;;;;5055385;28;20500;-76
2023/09/17 11:52:34;;;;;;;20.02;17.85;;;20.20;99.90;;;;;;5002286;28;20103;-78
2023/09/17 11:55:06;;;;;;;21.27;18.98;;;20.30;99.90;;;;;;5035591;28;20386;-76
2023/09/17 11:57:33;;;;;;;22.00;18.88;;;20.50;99.90;;;;;;5071010;28;20049;-75
2023/09/17 12:00:00;;;;;;;21.58;17.95;;;20.70;99.90;;;;;;5055371;28;20033;-77
2023/09/17 12:02:27;;;;;;;19.67;17.25;;;20.90;99.90;;;;;;5054449;28;20071;-76
2023/09/17 12:04:54;;;;;;;23.17;17.67;;;21.10;99.90;;;;;;5054851;28;20044;-76
2023/09/17 12:07:20;;;;;;;19.55;16.60;;;21.40;99.90;;;;;;5054561;28;20389;-76
2023/09/17 12:12:13;;;;;;;19.33;15.20;;;21.70;99.90;;;;;;5055473;28;20141;-77
2023/09/17 12:14:40;;;;;;;19.15;15.98;;;21.80;99.90;;;;;;5055081;28;20088;-78
2023/09/17 12:17:06;;;;;;;20.27;17.88;;;21.90;99.90;;;;;;5039033;28;20399;-78
2023/09/17 12:19:32;;;;;;;16.73;15.00;;;22.00;99.90;;;;;;5054341;28;20057;-78
2023/09/17 12:21:59;;;;;;;17.83;15.40;;;22.10;99.90;;;;;;5054596;28;20045;-77
2023/09/17 12:24:35;;;;;;;17.95;15.15;;;22.20;99.90;;;;;;5055146;28;20053;-77
2023/09/17 12:27:24;;;;;;;17.50;14.48;;;22.20;99.90;;;;;;5055085;28;20118;-77
2023/09/17 12:29:53;;;;;;;17.20;14.10;;;22.30;99.90;;;;;;5039075;28;20049;-78
2023/09/17 12:32:22;;;;;;;18.88;16.10;;;22.30;99.90;;;;;;5053757;28;20168;-77
2023/09/17 12:34:53;;;;;;;18.13;15.75;;;22.30;99.90;;;;;;5037587;28;20045;-76